Terminal Aerodrome Forecast
Issued by NWS

Home | Current Version | Previous Version | Text Only | Print | Product List | Glossary On
Versions: 1 2 3 4 5 6 7 8 9 10 11 12 13 14 15 16 17 18 19 20 21 22 23
297
FTUS43 KDLH 201137
TAFHIB
TAF
KHIB 201137Z 2012/2112 09010KT P6SM BKN120
     FM201500 09012G18KT P6SM BKN100
     FM202100 08014G19KT P6SM -SHRA SCT025 OVC070
     FM202300 08013G18KT 5SM -RA BR SCT025 OVC050
     FM210100 06014KT 3SM -RA BR SCT007 OVC018
     FM210400 06011KT 3SM -RA BR SCT003 OVC007
     FM210800 05008KT 3SM -DZ BR OVC006=

USA.gov is the U.S. government's official web portal to all federal, state and local government web resources and services.